sensor_id;sensor_type;location;lat;lon;timestamp;P1;durP1;ratioP1;P2;durP2;ratioP2
17987;SDS011;9119;50.932;5.342;2023-07-31T00:01:18;17.63;;;5.30;;
17987;SDS011;9119;50.932;5.342;2023-07-31T00:03:45;16.37;;;4.67;;
17987;SDS011;9119;50.932;5.342;2023-07-31T00:06:11;19.33;;;4.37;;
17987;SDS011;9119;50.932;5.342;2023-07-31T00:08:37;15.80;;;4.50;;
17987;SDS011;9119;50.932;5.342;2023-07-31T00:11:02;13.33;;;4.50;;
17987;SDS011;9119;50.932;5.342;2023-07-31T00:13:28;18.00;;;4.83;;
17987;SDS011;9119;50.932;5.342;2023-07-31T00:15:54;21.93;;;5.30;;
17987;SDS011;9119;50.932;5.342;2023-07-31T00:18:19;18.47;;;5.03;;
17987;SDS011;9119;50.932;5.342;2023-07-31T00:20:45;14.33;;;4.30;;
17987;SDS011;9119;50.932;5.342;2023-07-31T00:23:11;18.60;;;4.67;;
17987;SDS011;9119;50.932;5.342;2023-07-31T00:25:36;19.77;;;5.33;;
17987;SDS011;9119;50.932;5.342;2023-07-31T00:28:02;16.80;;;5.53;;
17987;SDS011;9119;50.932;5.342;2023-07-31T00:30:28;19.77;;;4.80;;
17987;SDS011;9119;50.932;5.342;2023-07-31T00:32:53;20.03;;;5.17;;
17987;SDS011;9119;50.932;5.342;2023-07-31T00:35:19;18.60;;;5.03;;
17987;SDS011;9119;50.932;5.342;2023-07-31T00:37:45;17.83;;;4.37;;
17987;SDS011;9119;50.932;5.342;2023-07-31T00:40:10;21.40;;;5.33;;
17987;SDS011;9119;50.932;5.342;2023-07-31T00:42:36;15.50;;;4.50;;
17987;SDS011;9119;50.932;5.342;2023-07-31T00:45:02;21.77;;;7.60;;
17987;SDS011;9119;50.932;5.342;2023-07-31T00:47:27;20.83;;;7.03;;
17987;SDS011;9119;50.932;5.342;2023-07-31T00:49:53;18.57;;;5.27;;
17987;SDS011;9119;50.932;5.342;2023-07-31T00:52:19;19.83;;;4.80;;
17987;SDS011;9119;50.932;5.342;2023-07-31T00:54:45;16.50;;;4.93;;
17987;SDS011;9119;50.932;5.342;2023-07-31T00:57:11;13.53;;;4.70;;
17987;SDS011;9119;50.932;5.342;2023-07-31T00:59:37;21.47;;;5.30;;
17987;SDS011;9119;50.932;5.342;2023-07-31T01:02:03;17.30;;;5.83;;
17987;SDS011;9119;50.932;5.342;2023-07-31T01:04:29;14.03;;;4.27;;
17987;SDS011;9119;50.932;5.342;2023-07-31T01:12:27;16.43;;;4.07;;
17987;SDS011;9119;50.932;5.342;2023-07-31T01:15:05;13.37;;;4.27;;
17987;SDS011;9119;50.932;5.342;2023-07-31T01:17:35;19.67;;;5.20;;
17987;SDS011;9119;50.932;5.342;2023-07-31T01:20:02;14.57;;;4.67;;
17987;SDS011;9119;50.932;5.342;2023-07-31T01:22:39;14.73;;;4.90;;
17987;SDS011;9119;50.932;5.342;2023-07-31T01:28:04;13.73;;;4.43;;
17987;SDS011;9119;50.932;5.342;2023-07-31T01:30:33;18.17;;;4.57;;
17987;SDS011;9119;50.932;5.342;2023-07-31T01:33:02;16.03;;;4.20;;
17987;SDS011;9119;50.932;5.342;2023-07-31T01:35:35;13.97;;;4.50;;
17987;SDS011;9119;50.932;5.342;2023-07-31T01:38:02;12.40;;;4.53;;
17987;SDS011;9119;50.932;5.342;2023-07-31T01:40:29;15.03;;;5.47;;
17987;SDS011;9119;50.932;5.342;2023-07-31T01:42:55;16.23;;;4.57;;
17987;SDS011;9119;50.932;5.342;2023-07-31T01:45:20;14.67;;;4.90;;
17987;SDS011;9119;50.932;5.342;2023-07-31T01:47:46;15.47;;;5.23;;
17987;SDS011;9119;50.932;5.342;2023-07-31T01:50:12;18.53;;;5.17;;
17987;SDS011;9119;50.932;5.342;2023-07-31T01:52:37;13.87;;;4.50;;
17987;SDS011;9119;50.932;5.342;2023-07-31T01:55:04;19.90;;;5.00;;
17987;SDS011;9119;50.932;5.342;2023-07-31T01:57:29;18.13;;;4.70;;
17987;SDS011;9119;50.932;5.342;2023-07-31T01:59:55;22.40;;;5.83;;
17987;SDS011;9119;50.932;5.342;2023-07-31T02:02:22;18.60;;;5.50;;
17987;SDS011;9119;50.932;5.342;2023-07-31T02:04:48;20.33;;;5.43;;
17987;SDS011;9119;50.932;5.342;2023-07-31T02:07:14;14.93;;;5.33;;
17987;SDS011;9119;50.932;5.342;2023-07-31T02:09:40;17.70;;;6.13;;
17987;SDS011;9119;50.932;5.342;2023-07-31T02:12:05;18.47;;;4.87;;
17987;SDS011;9119;50.932;5.342;2023-07-31T02:14:33;16.13;;;5.17;;
17987;SDS011;9119;50.932;5.342;2023-07-31T02:16:59;21.07;;;7.13;;
17987;SDS011;9119;50.932;5.342;2023-07-31T02:19:25;13.03;;;5.33;;
17987;SDS011;9119;50.932;5.342;2023-07-31T02:21:51;18.63;;;5.23;;
17987;SDS011;9119;50.932;5.342;2023-07-31T02:24:16;15.00;;;5.03;;
17987;SDS011;9119;50.932;5.342;2023-07-31T02:26:42;15.77;;;5.40;;
17987;SDS011;9119;50.932;5.342;2023-07-31T02:29:08;12.73;;;4.67;;
17987;SDS011;9119;50.932;5.342;2023-07-31T02:31:34;17.53;;;5.37;;
17987;SDS011;9119;50.932;5.342;2023-07-31T02:33:59;23.47;;;6.30;;
17987;SDS011;9119;50.932;5.342;2023-07-31T02:36:25;14.37;;;5.87;;
17987;SDS011;9119;50.932;5.342;2023-07-31T02:38:50;19.10;;;5.90;;
17987;SDS011;9119;50.932;5.342;2023-07-31T02:41:16;13.47;;;4.90;;
17987;SDS011;9119;50.932;5.342;2023-07-31T02:43:42;19.60;;;5.47;;
17987;SDS011;9119;50.932;5.342;2023-07-31T02:46:08;16.53;;;5.50;;
17987;SDS011;9119;50.932;5.342;2023-07-31T02:48:34;12.30;;;4.93;;
17987;SDS011;9119;50.932;5.342;2023-07-31T02:51:00;13.03;;;4.80;;
17987;SDS011;9119;50.932;5.342;2023-07-31T02:53:25;16.37;;;5.17;;
17987;SDS011;9119;50.932;5.342;2023-07-31T02:55:51;11.93;;;4.70;;
17987;SDS011;9119;50.932;5.342;2023-07-31T02:58:17;13.03;;;5.60;;
17987;SDS011;9119;50.932;5.342;2023-07-31T03:00:43;12.13;;;4.97;;
17987;SDS011;9119;50.932;5.342;2023-07-31T03:03:09;10.63;;;4.73;;
17987;SDS011;9119;50.932;5.342;2023-07-31T03:05:35;18.13;;;5.40;;
17987;SDS011;9119;50.932;5.342;2023-07-31T03:08:01;9.50;;;4.67;;
17987;SDS011;9119;50.932;5.342;2023-07-31T03:10:27;13.00;;;5.43;;
17987;SDS011;9119;50.932;5.342;2023-07-31T03:12:52;14.43;;;5.53;;
17987;SDS011;9119;50.932;5.342;2023-07-31T03:15:18;12.67;;;4.90;;
17987;SDS011;9119;50.932;5.342;2023-07-31T03:17:43;13.97;;;5.07;;
17987;SDS011;9119;50.932;5.342;2023-07-31T03:20:09;14.60;;;4.93;;
17987;SDS011;9119;50.932;5.342;2023-07-31T03:22:35;13.40;;;5.40;;
17987;SDS011;9119;50.932;5.342;2023-07-31T03:25:02;14.20;;;5.00;;
17987;SDS011;9119;50.932;5.342;2023-07-31T03:27:28;9.20;;;5.00;;
17987;SDS011;9119;50.932;5.342;2023-07-31T03:29:53;11.67;;;4.80;;
17987;SDS011;9119;50.932;5.342;2023-07-31T03:32:19;16.93;;;4.80;;
17987;SDS011;9119;50.932;5.342;2023-07-31T03:34:45;16.10;;;4.97;;
17987;SDS011;9119;50.932;5.342;2023-07-31T03:37:10;13.20;;;5.07;;
17987;SDS011;9119;50.932;5.342;2023-07-31T03:39:36;8.33;;;4.17;;
17987;SDS011;9119;50.932;5.342;2023-07-31T03:42:02;11.37;;;4.20;;
17987;SDS011;9119;50.932;5.342;2023-07-31T03:44:28;11.33;;;4.77;;
17987;SDS011;9119;50.932;5.342;2023-07-31T03:46:53;10.07;;;4.63;;
17987;SDS011;9119;50.932;5.342;2023-07-31T03:49:19;13.37;;;5.07;;
17987;SDS011;9119;50.932;5.342;2023-07-31T03:51:45;12.70;;;4.30;;
17987;SDS011;9119;50.932;5.342;2023-07-31T03:54:10;12.60;;;4.53;;
17987;SDS011;9119;50.932;5.342;2023-07-31T03:56:36;12.93;;;4.50;;
17987;SDS011;9119;50.932;5.342;2023-07-31T03:59:03;9.30;;;4.80;;
17987;SDS011;9119;50.932;5.342;2023-07-31T04:01:29;10.03;;;3.97;;
17987;SDS011;9119;50.932;5.342;2023-07-31T04:03:55;15.40;;;4.97;;
17987;SDS011;9119;50.932;5.342;2023-07-31T04:06:20;10.37;;;4.40;;
17987;SDS011;9119;50.932;5.342;2023-07-31T04:08:46;12.73;;;4.20;;
17987;SDS011;9119;50.932;5.342;2023-07-31T04:11:12;10.93;;;4.50;;
17987;SDS011;9119;50.932;5.342;2023-07-31T04:13:38;14.60;;;4.07;;
17987;SDS011;9119;50.932;5.342;2023-07-31T04:16:04;10.03;;;4.03;;
17987;SDS011;9119;50.932;5.342;2023-07-31T04:18:29;9.37;;;4.40;;
17987;SDS011;9119;50.932;5.342;2023-07-31T04:20:56;8.03;;;3.97;;
17987;SDS011;9119;50.932;5.342;2023-07-31T04:23:23;13.37;;;4.50;;
17987;SDS011;9119;50.932;5.342;2023-07-31T04:25:49;9.03;;;3.77;;
17987;SDS011;9119;50.932;5.342;2023-07-31T04:28:15;10.57;;;4.30;;
17987;SDS011;9119;50.932;5.342;2023-07-31T04:30:41;13.43;;;4.40;;
17987;SDS011;9119;50.932;5.342;2023-07-31T04:33:06;11.13;;;4.20;;
17987;SDS011;9119;50.932;5.342;2023-07-31T04:35:32;7.33;;;3.33;;
17987;SDS011;9119;50.932;5.342;2023-07-31T04:37:57;14.23;;;4.13;;
17987;SDS011;9119;50.932;5.342;2023-07-31T04:40:23;12.47;;;4.40;;
17987;SDS011;9119;50.932;5.342;2023-07-31T04:42:49;9.00;;;4.27;;
17987;SDS011;9119;50.932;5.342;2023-07-31T04:45:15;16.33;;;4.00;;
17987;SDS011;9119;50.932;5.342;2023-07-31T04:47:41;12.37;;;4.03;;
17987;SDS011;9119;50.932;5.342;2023-07-31T04:50:06;10.13;;;3.93;;
17987;SDS011;9119;50.932;5.342;2023-07-31T04:52:32;8.43;;;3.97;;
17987;SDS011;9119;50.932;5.342;2023-07-31T04:54:58;11.87;;;3.77;;
17987;SDS011;9119;50.932;5.342;2023-07-31T04:57:24;10.27;;;4.20;;
17987;SDS011;9119;50.932;5.342;2023-07-31T04:59:49;9.70;;;4.10;;
17987;SDS011;9119;50.932;5.342;2023-07-31T05:02:15;10.43;;;3.80;;
17987;SDS011;9119;50.932;5.342;2023-07-31T05:04:41;11.17;;;4.50;;
17987;SDS011;9119;50.932;5.342;2023-07-31T05:07:06;9.10;;;4.10;;
17987;SDS011;9119;50.932;5.342;2023-07-31T05:09:32;9.93;;;4.33;;
17987;SDS011;9119;50.932;5.342;2023-07-31T05:11:58;10.37;;;4.07;;
17987;SDS011;9119;50.932;5.342;2023-07-31T05:14:23;14.63;;;4.10;;
17987;SDS011;9119;50.932;5.342;2023-07-31T05:16:49;12.37;;;4.03;;
17987;SDS011;9119;50.932;5.342;2023-07-31T05:19:15;9.17;;;4.27;;
17987;SDS011;9119;50.932;5.342;2023-07-31T05:21:40;13.93;;;4.60;;
17987;SDS011;9119;50.932;5.342;2023-07-31T05:24:06;9.90;;;4.30;;
17987;SDS011;9119;50.932;5.342;2023-07-31T05:26:32;14.90;;;4.50;;
17987;SDS011;9119;50.932;5.342;2023-07-31T05:28:57;12.40;;;4.20;;
17987;SDS011;9119;50.932;5.342;2023-07-31T05:31:23;17.73;;;4.60;;
17987;SDS011;9119;50.932;5.342;2023-07-31T05:33:49;12.67;;;4.00;;
17987;SDS011;9119;50.932;5.342;2023-07-31T05:36:15;9.97;;;4.10;;
17987;SDS011;9119;50.932;5.342;2023-07-31T05:38:42;12.70;;;4.23;;
17987;SDS011;9119;50.932;5.342;2023-07-31T05:41:09;13.73;;;4.77;;
17987;SDS011;9119;50.932;5.342;2023-07-31T05:43:36;11.37;;;3.87;;
17987;SDS011;9119;50.932;5.342;2023-07-31T05:46:01;10.40;;;3.53;;
17987;SDS011;9119;50.932;5.342;2023-07-31T05:48:27;9.90;;;3.60;;
17987;SDS011;9119;50.932;5.342;2023-07-31T05:50:53;13.30;;;3.83;;
17987;SDS011;9119;50.932;5.342;2023-07-31T05:53:18;9.03;;;3.87;;
17987;SDS011;9119;50.932;5.342;2023-07-31T05:55:44;8.87;;;3.40;;
17987;SDS011;9119;50.932;5.342;2023-07-31T05:58:10;7.17;;;3.57;;
17987;SDS011;9119;50.932;5.342;2023-07-31T06:00:35;12.03;;;3.83;;
17987;SDS011;9119;50.932;5.342;2023-07-31T06:03:01;9.17;;;4.00;;
17987;SDS011;9119;50.932;5.342;2023-07-31T06:05:27;7.60;;;3.60;;
17987;SDS011;9119;50.932;5.342;2023-07-31T06:07:54;10.33;;;3.90;;
17987;SDS011;9119;50.932;5.342;2023-07-31T06:10:20;10.10;;;3.50;;
17987;SDS011;9119;50.932;5.342;2023-07-31T06:12:46;14.00;;;3.87;;
17987;SDS011;9119;50.932;5.342;2023-07-31T06:15:12;9.37;;;3.47;;
17987;SDS011;9119;50.932;5.342;2023-07-31T06:17:37;12.37;;;4.07;;
17987;SDS011;9119;50.932;5.342;2023-07-31T06:20:03;10.20;;;4.30;;
17987;SDS011;9119;50.932;5.342;2023-07-31T06:22:31;14.10;;;4.47;;
17987;SDS011;9119;50.932;5.342;2023-07-31T06:24:56;16.50;;;3.80;;
17987;SDS011;9119;50.932;5.342;2023-07-31T06:27:23;10.67;;;3.57;;
17987;SDS011;9119;50.932;5.342;2023-07-31T06:29:48;12.20;;;4.40;;
17987;SDS011;9119;50.932;5.342;2023-07-31T06:32:14;6.00;;;3.17;;
17987;SDS011;9119;50.932;5.342;2023-07-31T06:34:40;15.37;;;3.80;;
17987;SDS011;9119;50.932;5.342;2023-07-31T06:37:05;12.27;;;3.87;;
17987;SDS011;9119;50.932;5.342;2023-07-31T06:39:31;10.77;;;3.97;;
17987;SDS011;9119;50.932;5.342;2023-07-31T06:41:57;7.80;;;3.67;;
17987;SDS011;9119;50.932;5.342;2023-07-31T06:44:22;12.50;;;4.30;;
17987;SDS011;9119;50.932;5.342;2023-07-31T06:46:48;8.40;;;3.57;;
17987;SDS011;9119;50.932;5.342;2023-07-31T06:49:13;9.00;;;3.70;;
17987;SDS011;9119;50.932;5.342;2023-07-31T06:51:42;10.77;;;4.47;;
17987;SDS011;9119;50.932;5.342;2023-07-31T06:54:09;11.50;;;3.97;;
17987;SDS011;9119;50.932;5.342;2023-07-31T06:56:34;9.60;;;3.43;;
17987;SDS011;9119;50.932;5.342;2023-07-31T06:59:00;16.87;;;5.47;;
17987;SDS011;9119;50.932;5.342;2023-07-31T07:01:26;10.27;;;4.60;;
17987;SDS011;9119;50.932;5.342;2023-07-31T07:03:53;10.80;;;3.97;;
17987;SDS011;9119;50.932;5.342;2023-07-31T07:06:19;10.37;;;4.23;;
17987;SDS011;9119;50.932;5.342;2023-07-31T07:08:45;8.53;;;3.63;;
17987;SDS011;9119;50.932;5.342;2023-07-31T07:11:10;12.67;;;3.83;;
17987;SDS011;9119;50.932;5.342;2023-07-31T07:13:36;11.17;;;4.07;;
17987;SDS011;9119;50.932;5.342;2023-07-31T07:16:01;11.17;;;5.57;;
17987;SDS011;9119;50.932;5.342;2023-07-31T07:18:27;10.37;;;4.20;;
17987;SDS011;9119;50.932;5.342;2023-07-31T07:20:53;12.43;;;4.50;;
17987;SDS011;9119;50.932;5.342;2023-07-31T07:23:20;12.03;;;3.80;;
17987;SDS011;9119;50.932;5.342;2023-07-31T07:25:46;8.80;;;3.20;;
17987;SDS011;9119;50.932;5.342;2023-07-31T07:28:12;10.67;;;3.87;;
17987;SDS011;9119;50.932;5.342;2023-07-31T07:30:38;10.57;;;3.47;;
17987;SDS011;9119;50.932;5.342;2023-07-31T07:33:04;11.23;;;4.27;;
17987;SDS011;9119;50.932;5.342;2023-07-31T07:35:32;10.80;;;3.67;;
17987;SDS011;9119;50.932;5.342;2023-07-31T07:37:59;12.77;;;3.80;;
17987;SDS011;9119;50.932;5.342;2023-07-31T07:40:26;11.17;;;3.80;;
17987;SDS011;9119;50.932;5.342;2023-07-31T07:42:51;12.63;;;4.60;;
17987;SDS011;9119;50.932;5.342;2023-07-31T07:45:17;8.27;;;3.60;;
17987;SDS011;9119;50.932;5.342;2023-07-31T07:47:43;14.80;;;4.03;;
17987;SDS011;9119;50.932;5.342;2023-07-31T07:50:08;10.47;;;3.60;;
17987;SDS011;9119;50.932;5.342;2023-07-31T07:52:34;10.87;;;4.17;;
17987;SDS011;9119;50.932;5.342;2023-07-31T07:55:00;15.13;;;3.77;;
17987;SDS011;9119;50.932;5.342;2023-07-31T07:57:26;11.13;;;3.90;;
17987;SDS011;9119;50.932;5.342;2023-07-31T07:59:52;9.20;;;3.77;;
17987;SDS011;9119;50.932;5.342;2023-07-31T08:02:17;9.00;;;3.53;;
17987;SDS011;9119;50.932;5.342;2023-07-31T08:04:43;10.63;;;3.90;;
17987;SDS011;9119;50.932;5.342;2023-07-31T08:07:12;9.07;;;3.53;;
17987;SDS011;9119;50.932;5.342;2023-07-31T08:09:38;10.20;;;3.30;;
17987;SDS011;9119;50.932;5.342;2023-07-31T08:12:04;10.97;;;3.63;;
17987;SDS011;9119;50.932;5.342;2023-07-31T08:14:30;9.80;;;3.60;;
17987;SDS011;9119;50.932;5.342;2023-07-31T08:16:56;6.33;;;3.60;;
17987;SDS011;9119;50.932;5.342;2023-07-31T08:19:22;11.80;;;3.60;;
17987;SDS011;9119;50.932;5.342;2023-07-31T08:21:48;6.53;;;2.80;;
17987;SDS011;9119;50.932;5.342;2023-07-31T08:24:13;8.30;;;3.53;;
17987;SDS011;9119;50.932;5.342;2023-07-31T08:26:39;8.83;;;3.40;;
17987;SDS011;9119;50.932;5.342;2023-07-31T08:29:05;10.27;;;3.53;;
17987;SDS011;9119;50.932;5.342;2023-07-31T08:31:31;8.33;;;3.33;;
17987;SDS011;9119;50.932;5.342;2023-07-31T08:33:56;8.27;;;3.50;;
17987;SDS011;9119;50.932;5.342;2023-07-31T08:36:22;9.07;;;3.60;;
17987;SDS011;9119;50.932;5.342;2023-07-31T08:38:47;10.67;;;4.40;;
17987;SDS011;9119;50.932;5.342;2023-07-31T08:41:14;12.87;;;4.07;;
17987;SDS011;9119;50.932;5.342;2023-07-31T08:43:44;8.97;;;3.80;;
17987;SDS011;9119;50.932;5.342;2023-07-31T08:46:14;10.97;;;3.53;;
17987;SDS011;9119;50.932;5.342;2023-07-31T08:48:43;9.80;;;3.90;;
17987;SDS011;9119;50.932;5.342;2023-07-31T08:51:09;12.10;;;5.13;;
17987;SDS011;9119;50.932;5.342;2023-07-31T08:53:35;9.17;;;3.47;;
17987;SDS011;9119;50.932;5.342;2023-07-31T08:56:01;13.23;;;3.83;;
17987;SDS011;9119;50.932;5.342;2023-07-31T08:58:27;8.30;;;3.63;;
17987;SDS011;9119;50.932;5.342;2023-07-31T09:00:56;7.07;;;3.47;;
17987;SDS011;9119;50.932;5.342;2023-07-31T09:03:23;5.23;;;2.90;;
17987;SDS011;9119;50.932;5.342;2023-07-31T09:05:51;11.17;;;3.80;;
17987;SDS011;9119;50.932;5.342;2023-07-31T09:08:18;12.90;;;4.80;;
17987;SDS011;9119;50.932;5.342;2023-07-31T09:10:46;7.77;;;3.80;;
17987;SDS011;9119;50.932;5.342;2023-07-31T09:13:12;8.97;;;4.07;;
17987;SDS011;9119;50.932;5.342;2023-07-31T09:15:39;9.63;;;3.37;;
17987;SDS011;9119;50.932;5.342;2023-07-31T09:18:06;10.23;;;4.20;;
17987;SDS011;9119;50.932;5.342;2023-07-31T09:20:32;5.93;;;2.93;;
17987;SDS011;9119;50.932;5.342;2023-07-31T09:23:11;5.13;;;2.80;;
17987;SDS011;9119;50.932;5.342;2023-07-31T09:25:38;7.50;;;3.47;;
17987;SDS011;9119;50.932;5.342;2023-07-31T09:28:08;6.77;;;3.07;;
17987;SDS011;9119;50.932;5.342;2023-07-31T09:30:50;8.53;;;3.17;;
17987;SDS011;9119;50.932;5.342;2023-07-31T09:33:17;5.83;;;2.63;;
17987;SDS011;9119;50.932;5.342;2023-07-31T09:35:43;7.93;;;3.93;;
17987;SDS011;9119;50.932;5.342;2023-07-31T09:38:10;9.73;;;4.77;;
17987;SDS011;9119;50.932;5.342;2023-07-31T09:40:41;4.37;;;2.30;;
17987;SDS011;9119;50.932;5.342;2023-07-31T09:43:11;8.77;;;2.47;;
17987;SDS011;9119;50.932;5.342;2023-07-31T09:45:47;7.97;;;2.43;;
17987;SDS011;9119;50.932;5.342;2023-07-31T09:48:16;3.13;;;1.90;;
17987;SDS011;9119;50.932;5.342;2023-07-31T09:50:44;3.83;;;2.00;;
17987;SDS011;9119;50.932;5.342;2023-07-31T09:53:12;5.33;;;1.90;;
17987;SDS011;9119;50.932;5.342;2023-07-31T09:55:39;5.07;;;2.20;;
17987;SDS011;9119;50.932;5.342;2023-07-31T09:58:06;4.87;;;2.27;;
17987;SDS011;9119;50.932;5.342;2023-07-31T10:00:34;4.20;;;2.17;;
17987;SDS011;9119;50.932;5.342;2023-07-31T10:03:00;4.40;;;2.20;;
17987;SDS011;9119;50.932;5.342;2023-07-31T10:05:30;5.17;;;1.80;;
17987;SDS011;9119;50.932;5.342;2023-07-31T10:07:59;3.43;;;2.20;;
17987;SDS011;9119;50.932;5.342;2023-07-31T10:10:25;3.47;;;1.87;;
17987;SDS011;9119;50.932;5.342;2023-07-31T10:12:52;5.53;;;2.03;;
17987;SDS011;9119;50.932;5.342;2023-07-31T10:15:19;4.70;;;2.13;;
17987;SDS011;9119;50.932;5.342;2023-07-31T10:17:47;3.17;;;1.93;;
17987;SDS011;9119;50.932;5.342;2023-07-31T10:20:14;6.10;;;2.57;;
17987;SDS011;9119;50.932;5.342;2023-07-31T10:22:41;7.33;;;2.60;;
17987;SDS011;9119;50.932;5.342;2023-07-31T10:25:08;5.20;;;2.77;;
17987;SDS011;9119;50.932;5.342;2023-07-31T10:27:36;8.20;;;2.67;;
17987;SDS011;9119;50.932;5.342;2023-07-31T10:30:04;5.53;;;2.97;;
17987;SDS011;9119;50.932;5.342;2023-07-31T10:32:33;8.43;;;2.80;;
17987;SDS011;9119;50.932;5.342;2023-07-31T10:34:59;10.47;;;3.43;;
17987;SDS011;9119;50.932;5.342;2023-07-31T10:37:29;7.43;;;2.80;;
17987;SDS011;9119;50.932;5.342;2023-07-31T10:42:27;8.73;;;3.20;;
17987;SDS011;9119;50.932;5.342;2023-07-31T10:45:01;7.87;;;3.60;;
17987;SDS011;9119;50.932;5.342;2023-07-31T10:47:29;8.40;;;3.87;;
17987;SDS011;9119;50.932;5.342;2023-07-31T10:52:52;11.53;;;4.10;;
17987;SDS011;9119;50.932;5.342;2023-07-31T10:57:54;10.67;;;3.90;;
17987;SDS011;9119;50.932;5.342;2023-07-31T11:00:30;8.80;;;3.73;;
17987;SDS011;9119;50.932;5.342;2023-07-31T11:05:39;10.83;;;4.07;;
17987;SDS011;9119;50.932;5.342;2023-07-31T11:08:25;12.13;;;4.40;;
17987;SDS011;9119;50.932;5.342;2023-07-31T11:13:27;13.20;;;4.80;;
17987;SDS011;9119;50.932;5.342;2023-07-31T11:16:17;10.40;;;4.40;;
17987;SDS011;9119;50.932;5.342;2023-07-31T11:18:45;7.80;;;4.07;;
17987;SDS011;9119;50.932;5.342;2023-07-31T11:21:17;12.50;;;4.73;;
17987;SDS011;9119;50.932;5.342;2023-07-31T11:23:47;10.00;;;4.00;;
17987;SDS011;9119;50.932;5.342;2023-07-31T11:26:16;7.70;;;3.63;;
17987;SDS011;9119;50.932;5.342;2023-07-31T11:28:42;8.20;;;3.60;;
17987;SDS011;9119;50.932;5.342;2023-07-31T11:31:11;11.00;;;4.53;;
17987;SDS011;9119;50.932;5.342;2023-07-31T11:33:36;9.70;;;4.50;;
17987;SDS011;9119;50.932;5.342;2023-07-31T11:36:02;9.20;;;3.77;;
17987;SDS011;9119;50.932;5.342;2023-07-31T11:38:29;12.17;;;4.70;;
17987;SDS011;9119;50.932;5.342;2023-07-31T11:41:00;10.17;;;3.83;;
17987;SDS011;9119;50.932;5.342;2023-07-31T11:43:27;13.03;;;3.73;;
17987;SDS011;9119;50.932;5.342;2023-07-31T11:45:54;10.10;;;4.50;;
17987;SDS011;9119;50.932;5.342;2023-07-31T11:48:24;9.40;;;3.93;;
17987;SDS011;9119;50.932;5.342;2023-07-31T11:50:53;10.17;;;4.20;;
17987;SDS011;9119;50.932;5.342;2023-07-31T11:53:53;8.10;;;4.33;;
17987;SDS011;9119;50.932;5.342;2023-07-31T11:56:17;9.40;;;3.77;;
17987;SDS011;9119;50.932;5.342;2023-07-31T11:58:47;10.67;;;4.10;;
17987;SDS011;9119;50.932;5.342;2023-07-31T12:01:17;9.47;;;4.17;;
17987;SDS011;9119;50.932;5.342;2023-07-31T12:03:45;14.53;;;4.53;;
17987;SDS011;9119;50.932;5.342;2023-07-31T12:06:11;14.07;;;4.27;;
17987;SDS011;9119;50.932;5.342;2023-07-31T12:08:37;9.97;;;4.30;;
17987;SDS011;9119;50.932;5.342;2023-07-31T12:11:03;9.53;;;3.50;;
17987;SDS011;9119;50.932;5.342;2023-07-31T12:13:30;16.33;;;3.77;;
17987;SDS011;9119;50.932;5.342;2023-07-31T12:15:58;13.10;;;4.43;;
17987;SDS011;9119;50.932;5.342;2023-07-31T12:18:27;7.80;;;3.67;;
17987;SDS011;9119;50.932;5.342;2023-07-31T12:20:58;11.20;;;4.17;;
17987;SDS011;9119;50.932;5.342;2023-07-31T12:23:28;9.33;;;4.20;;
17987;SDS011;9119;50.932;5.342;2023-07-31T12:26:02;12.70;;;3.97;;
17987;SDS011;9119;50.932;5.342;2023-07-31T12:28:28;10.90;;;4.20;;
17987;SDS011;9119;50.932;5.342;2023-07-31T12:30:56;9.03;;;4.33;;
17987;SDS011;9119;50.932;5.342;2023-07-31T12:33:32;10.27;;;4.23;;
17987;SDS011;9119;50.932;5.342;2023-07-31T12:36:03;9.27;;;4.07;;
17987;SDS011;9119;50.932;5.342;2023-07-31T12:38:33;8.10;;;3.73;;
17987;SDS011;9119;50.932;5.342;2023-07-31T12:40:58;11.03;;;3.83;;
17987;SDS011;9119;50.932;5.342;2023-07-31T12:43:24;10.83;;;3.70;;
17987;SDS011;9119;50.932;5.342;2023-07-31T12:45:50;6.87;;;3.80;;
17987;SDS011;9119;50.932;5.342;2023-07-31T12:48:16;13.10;;;4.00;;
17987;SDS011;9119;50.932;5.342;2023-07-31T12:50:41;9.77;;;3.93;;
17987;SDS011;9119;50.932;5.342;2023-07-31T12:53:07;8.20;;;3.57;;
17987;SDS011;9119;50.932;5.342;2023-07-31T12:55:33;9.57;;;3.70;;
17987;SDS011;9119;50.932;5.342;2023-07-31T12:57:59;11.10;;;3.70;;
17987;SDS011;9119;50.932;5.342;2023-07-31T13:00:26;9.87;;;3.57;;
17987;SDS011;9119;50.932;5.342;2023-07-31T13:02:51;11.13;;;4.07;;
17987;SDS011;9119;50.932;5.342;2023-07-31T13:05:17;8.47;;;3.97;;
17987;SDS011;9119;50.932;5.342;2023-07-31T13:07:45;10.83;;;4.30;;
17987;SDS011;9119;50.932;5.342;2023-07-31T13:10:11;14.73;;;4.60;;
17987;SDS011;9119;50.932;5.342;2023-07-31T13:12:36;8.07;;;3.80;;
17987;SDS011;9119;50.932;5.342;2023-07-31T13:15:03;10.13;;;4.60;;
17987;SDS011;9119;50.932;5.342;2023-07-31T13:17:32;13.27;;;4.37;;
17987;SDS011;9119;50.932;5.342;2023-07-31T13:19:58;11.73;;;4.53;;
17987;SDS011;9119;50.932;5.342;2023-07-31T13:22:24;10.40;;;4.00;;
17987;SDS011;9119;50.932;5.342;2023-07-31T13:24:50;15.40;;;5.67;;
17987;SDS011;9119;50.932;5.342;2023-07-31T13:27:16;12.83;;;4.97;;
17987;SDS011;9119;50.932;5.342;2023-07-31T13:29:44;10.13;;;4.57;;
17987;SDS011;9119;50.932;5.342;2023-07-31T13:32:13;13.33;;;4.43;;
17987;SDS011;9119;50.932;5.342;2023-07-31T13:34:39;14.93;;;5.10;;
17987;SDS011;9119;50.932;5.342;2023-07-31T13:37:05;13.53;;;4.80;;
17987;SDS011;9119;50.932;5.342;2023-07-31T13:39:33;13.10;;;4.77;;
17987;SDS011;9119;50.932;5.342;2023-07-31T13:42:00;11.70;;;4.63;;
17987;SDS011;9119;50.932;5.342;2023-07-31T13:44:27;12.37;;;4.40;;
17987;SDS011;9119;50.932;5.342;2023-07-31T13:46:52;15.20;;;4.50;;
17987;SDS011;9119;50.932;5.342;2023-07-31T13:49:18;11.37;;;4.97;;
17987;SDS011;9119;50.932;5.342;2023-07-31T13:51:44;11.73;;;4.80;;
17987;SDS011;9119;50.932;5.342;2023-07-31T13:54:09;13.50;;;4.73;;
17987;SDS011;9119;50.932;5.342;2023-07-31T13:56:40;12.47;;;4.57;;
17987;SDS011;9119;50.932;5.342;2023-07-31T13:59:06;17.27;;;4.93;;
17987;SDS011;9119;50.932;5.342;2023-07-31T14:01:31;10.73;;;5.03;;
17987;SDS011;9119;50.932;5.342;2023-07-31T14:03:57;9.37;;;4.80;;
17987;SDS011;9119;50.932;5.342;2023-07-31T14:06:24;14.07;;;4.73;;
17987;SDS011;9119;50.932;5.342;2023-07-31T14:08:50;13.77;;;4.50;;
17987;SDS011;9119;50.932;5.342;2023-07-31T14:11:16;14.27;;;4.00;;
17987;SDS011;9119;50.932;5.342;2023-07-31T14:13:41;12.33;;;4.50;;
17987;SDS011;9119;50.932;5.342;2023-07-31T14:16:07;10.93;;;4.20;;
17987;SDS011;9119;50.932;5.342;2023-07-31T14:18:32;10.50;;;4.17;;
17987;SDS011;9119;50.932;5.342;2023-07-31T14:20:58;10.80;;;3.50;;
17987;SDS011;9119;50.932;5.342;2023-07-31T14:23:24;12.57;;;4.30;;
17987;SDS011;9119;50.932;5.342;2023-07-31T14:25:49;11.77;;;4.33;;
17987;SDS011;9119;50.932;5.342;2023-07-31T14:28:15;9.17;;;3.87;;
17987;SDS011;9119;50.932;5.342;2023-07-31T14:30:41;10.17;;;4.13;;
17987;SDS011;9119;50.932;5.342;2023-07-31T14:33:07;8.43;;;3.73;;
17987;SDS011;9119;50.932;5.342;2023-07-31T14:35:33;11.07;;;4.20;;
17987;SDS011;9119;50.932;5.342;2023-07-31T14:37:59;12.23;;;3.47;;
17987;SDS011;9119;50.932;5.342;2023-07-31T14:40:25;9.13;;;3.10;;
17987;SDS011;9119;50.932;5.342;2023-07-31T14:42:51;11.17;;;3.50;;
17987;SDS011;9119;50.932;5.342;2023-07-31T14:45:17;8.20;;;2.90;;
17987;SDS011;9119;50.932;5.342;2023-07-31T14:47:42;7.40;;;3.30;;
17987;SDS011;9119;50.932;5.342;2023-07-31T14:50:08;9.73;;;3.23;;
17987;SDS011;9119;50.932;5.342;2023-07-31T14:52:34;9.37;;;3.10;;
17987;SDS011;9119;50.932;5.342;2023-07-31T14:55:00;6.27;;;2.67;;
17987;SDS011;9119;50.932;5.342;2023-07-31T14:57:26;6.73;;;3.03;;
17987;SDS011;9119;50.932;5.342;2023-07-31T14:59:52;6.17;;;2.67;;
17987;SDS011;9119;50.932;5.342;2023-07-31T15:02:17;3.27;;;2.40;;
17987;SDS011;9119;50.932;5.342;2023-07-31T15:04:43;5.67;;;2.40;;
17987;SDS011;9119;50.932;5.342;2023-07-31T15:07:09;7.60;;;2.90;;
17987;SDS011;9119;50.932;5.342;2023-07-31T15:09:34;5.23;;;2.47;;
17987;SDS011;9119;50.932;5.342;2023-07-31T15:12:00;5.03;;;2.53;;